sensor_id;sensor_type;location;lat;lon;timestamp;pressure;altitude;pressure_sealevel;temperature;humidity
47280;BME280;34064;44.942;0.008;2023-04-10T00:00:39;99168.56;;;16.23;42.32
47280;BME280;34064;44.942;0.008;2023-04-10T00:03:06;99167.59;;;16.14;42.80
47280;BME280;34064;44.942;0.008;2023-04-10T00:05:33;99169.16;;;16.07;43.38
47280;BME280;34064;44.942;0.008;2023-04-10T00:07:59;99175.78;;;16.03;42.84
47280;BME280;34064;44.942;0.008;2023-04-10T00:10:26;99176.22;;;15.98;43.23
47280;BME280;34064;44.942;0.008;2023-04-10T00:12:55;99177.94;;;15.89;43.40
47280;BME280;34064;44.942;0.008;2023-04-10T00:15:21;99186.25;;;15.86;43.71
47280;BME280;34064;44.942;0.008;2023-04-10T00:17:47;99188.22;;;15.84;42.80
47280;BME280;34064;44.942;0.008;2023-04-10T00:20:17;99178.59;;;15.82;43.24
47280;BME280;34064;44.942;0.008;2023-04-10T00:22:43;99184.94;;;15.81;43.02
47280;BME280;34064;44.942;0.008;2023-04-10T00:25:09;99179.75;;;15.79;43.12
47280;BME280;34064;44.942;0.008;2023-04-10T00:27:36;99186.09;;;15.78;42.79
47280;BME280;34064;44.942;0.008;2023-04-10T00:30:02;99176.34;;;15.77;42.96
47280;BME280;34064;44.942;0.008;2023-04-10T00:32:29;99180.72;;;15.78;43.02
47280;BME280;34064;44.942;0.008;2023-04-10T00:34:55;99169.03;;;15.79;42.66
47280;BME280;34064;44.942;0.008;2023-04-10T00:37:21;99163.69;;;15.79;43.02
47280;BME280;34064;44.942;0.008;2023-04-10T00:39:48;99167.63;;;15.75;43.26
47280;BME280;34064;44.942;0.008;2023-04-10T00:42:14;99173.28;;;15.72;42.76
47280;BME280;34064;44.942;0.008;2023-04-10T00:44:41;99175.66;;;15.55;43.35
47280;BME280;34064;44.942;0.008;2023-04-10T00:47:07;99178.75;;;15.41;43.68
47280;BME280;34064;44.942;0.008;2023-04-10T00:49:34;99183.41;;;15.39;43.48
47280;BME280;34064;44.942;0.008;2023-04-10T00:52:01;99170.44;;;15.34;43.27
47280;BME280;34064;44.942;0.008;2023-04-10T00:54:27;99175.47;;;15.27;43.83
47280;BME280;34064;44.942;0.008;2023-04-10T00:56:54;99173.78;;;15.26;43.79
47280;BME280;34064;44.942;0.008;2023-04-10T00:59:23;99170.28;;;15.26;44.20
47280;BME280;34064;44.942;0.008;2023-04-10T01:01:50;99171.81;;;15.19;45.26
47280;BME280;34064;44.942;0.008;2023-04-10T01:04:16;99169.00;;;15.20;45.09
47280;BME280;34064;44.942;0.008;2023-04-10T01:07:09;99170.13;;;15.18;44.58
47280;BME280;34064;44.942;0.008;2023-04-10T01:09:55;99163.09;;;15.17;44.18
47280;BME280;34064;44.942;0.008;2023-04-10T01:15:19;99160.97;;;15.10;44.98
47280;BME280;34064;44.942;0.008;2023-04-10T01:20:31;99158.25;;;15.01;45.54
47280;BME280;34064;44.942;0.008;2023-04-10T01:23:20;99157.69;;;14.97;45.80
47280;BME280;34064;44.942;0.008;2023-04-10T01:26:12;99144.47;;;14.95;45.39
47280;BME280;34064;44.942;0.008;2023-04-10T01:29:03;99140.09;;;14.94;45.54
47280;BME280;34064;44.942;0.008;2023-04-10T01:31:48;99146.28;;;14.95;45.01
47280;BME280;34064;44.942;0.008;2023-04-10T01:34:21;99146.84;;;14.89;45.83
47280;BME280;34064;44.942;0.008;2023-04-10T01:37:14;99148.38;;;14.81;46.25
47280;BME280;34064;44.942;0.008;2023-04-10T01:39:42;99143.03;;;14.81;45.74
47280;BME280;34064;44.942;0.008;2023-04-10T01:42:10;99137.09;;;14.78;46.23
47280;BME280;34064;44.942;0.008;2023-04-10T01:44:41;99143.44;;;14.77;45.99
47280;BME280;34064;44.942;0.008;2023-04-10T01:47:09;99142.56;;;14.66;46.98
47280;BME280;34064;44.942;0.008;2023-04-10T01:49:37;99137.91;;;14.69;46.23
47280;BME280;34064;44.942;0.008;2023-04-10T01:52:10;99146.72;;;14.59;47.02
47280;BME280;34064;44.942;0.008;2023-04-10T01:54:37;99144.06;;;14.59;46.63
47280;BME280;34064;44.942;0.008;2023-04-10T01:57:04;99141.91;;;14.53;46.68
47280;BME280;34064;44.942;0.008;2023-04-10T01:59:31;99142.56;;;14.45;46.77
47280;BME280;34064;44.942;0.008;2023-04-10T02:02:00;99142.97;;;14.41;46.90
47280;BME280;34064;44.942;0.008;2023-04-10T02:04:27;99138.03;;;14.36;46.51
47280;BME280;34064;44.942;0.008;2023-04-10T02:10:12;99141.72;;;14.14;47.43
47280;BME280;34064;44.942;0.008;2023-04-10T02:12:45;99150.13;;;14.09;46.93
47280;BME280;34064;44.942;0.008;2023-04-10T02:15:12;99157.38;;;13.97;47.36
47280;BME280;34064;44.942;0.008;2023-04-10T02:17:40;99154.94;;;13.94;47.22
47280;BME280;34064;44.942;0.008;2023-04-10T02:20:08;99161.41;;;13.92;46.98
47280;BME280;34064;44.942;0.008;2023-04-10T02:22:35;99160.81;;;13.88;46.73
47280;BME280;34064;44.942;0.008;2023-04-10T02:25:03;99157.69;;;13.83;46.68
47280;BME280;34064;44.942;0.008;2023-04-10T02:27:33;99146.00;;;13.84;46.56
47280;BME280;34064;44.942;0.008;2023-04-10T02:30:00;99145.31;;;13.82;46.38
47280;BME280;34064;44.942;0.008;2023-04-10T02:32:30;99143.63;;;13.81;46.62
47280;BME280;34064;44.942;0.008;2023-04-10T02:34:58;99152.41;;;13.71;47.82
47280;BME280;34064;44.942;0.008;2023-04-10T02:37:25;99157.56;;;13.63;47.46
47280;BME280;34064;44.942;0.008;2023-04-10T02:39:52;99153.44;;;13.59;47.49
47280;BME280;34064;44.942;0.008;2023-04-10T02:42:19;99151.00;;;13.56;47.10
47280;BME280;34064;44.942;0.008;2023-04-10T02:44:47;99154.94;;;13.52;47.27
47280;BME280;34064;44.942;0.008;2023-04-10T02:47:14;99156.16;;;13.48;47.60
47280;BME280;34064;44.942;0.008;2023-04-10T02:49:41;99164.44;;;13.45;47.92
47280;BME280;34064;44.942;0.008;2023-04-10T02:52:07;99157.63;;;13.40;48.06
47280;BME280;34064;44.942;0.008;2023-04-10T02:54:33;99156.19;;;13.36;47.63
47280;BME280;34064;44.942;0.008;2023-04-10T02:57:00;99163.94;;;13.28;47.54
47280;BME280;34064;44.942;0.008;2023-04-10T02:59:26;99171.28;;;13.15;48.00
47280;BME280;34064;44.942;0.008;2023-04-10T03:01:55;99175.66;;;13.04;47.74
47280;BME280;34064;44.942;0.008;2023-04-10T03:04:25;99186.84;;;12.87;48.52
47280;BME280;34064;44.942;0.008;2023-04-10T03:06:54;99185.38;;;12.83;48.33
47280;BME280;34064;44.942;0.008;2023-04-10T03:09:20;99184.19;;;12.75;48.41
47280;BME280;34064;44.942;0.008;2023-04-10T03:11:47;99190.47;;;12.74;48.30
47280;BME280;34064;44.942;0.008;2023-04-10T03:14:13;99186.97;;;12.74;48.44
47280;BME280;34064;44.942;0.008;2023-04-10T03:16:40;99184.69;;;12.69;49.32
47280;BME280;34064;44.942;0.008;2023-04-10T03:19:07;99184.19;;;12.75;48.65
47280;BME280;34064;44.942;0.008;2023-04-10T03:21:33;99182.84;;;12.81;47.97
47280;BME280;34064;44.942;0.008;2023-04-10T03:23:59;99186.84;;;12.87;47.86
47280;BME280;34064;44.942;0.008;2023-04-10T03:26:26;99171.56;;;12.89;48.11
47280;BME280;34064;44.942;0.008;2023-04-10T03:28:53;99169.50;;;12.92;48.02
47280;BME280;34064;44.942;0.008;2023-04-10T03:31:19;99173.75;;;12.95;47.86
47280;BME280;34064;44.942;0.008;2023-04-10T03:33:46;99172.19;;;12.92;48.80
47280;BME280;34064;44.942;0.008;2023-04-10T03:36:12;99185.97;;;12.86;48.83
47280;BME280;34064;44.942;0.008;2023-04-10T03:38:39;99183.94;;;12.78;48.76
47280;BME280;34064;44.942;0.008;2023-04-10T03:41:05;99180.53;;;12.76;48.67
47280;BME280;34064;44.942;0.008;2023-04-10T03:43:32;99175.22;;;12.76;48.47
47280;BME280;34064;44.942;0.008;2023-04-10T03:45:58;99170.72;;;12.77;48.17
47280;BME280;34064;44.942;0.008;2023-04-10T03:48:26;99169.03;;;12.76;48.94
47280;BME280;34064;44.942;0.008;2023-04-10T03:50:54;99162.34;;;12.82;48.71
47280;BME280;34064;44.942;0.008;2023-04-10T03:53:20;99183.69;;;12.82;49.24
47280;BME280;34064;44.942;0.008;2023-04-10T03:55:47;99191.06;;;12.78;48.68
47280;BME280;34064;44.942;0.008;2023-04-10T03:58:13;99208.28;;;12.62;49.32
47280;BME280;34064;44.942;0.008;2023-04-10T04:00:39;99220.03;;;12.48;49.76
47280;BME280;34064;44.942;0.008;2023-04-10T04:03:06;99209.38;;;12.48;49.42
47280;BME280;34064;44.942;0.008;2023-04-10T04:05:32;99216.63;;;12.46;49.65
47280;BME280;34064;44.942;0.008;2023-04-10T04:07:59;99201.38;;;12.48;49.36
47280;BME280;34064;44.942;0.008;2023-04-10T04:10:25;99197.63;;;12.51;49.17
47280;BME280;34064;44.942;0.008;2023-04-10T04:12:52;99197.63;;;12.51;49.40
47280;BME280;34064;44.942;0.008;2023-04-10T04:15:18;99201.03;;;12.53;49.23
47280;BME280;34064;44.942;0.008;2023-04-10T04:17:46;99191.72;;;12.59;49.17
47280;BME280;34064;44.942;0.008;2023-04-10T04:20:13;99204.66;;;12.63;49.09
47280;BME280;34064;44.942;0.008;2023-04-10T04:22:39;99213.50;;;12.64;49.57
47280;BME280;34064;44.942;0.008;2023-04-10T04:25:06;99211.78;;;12.63;49.33
47280;BME280;34064;44.942;0.008;2023-04-10T04:27:36;99199.44;;;12.62;49.38
47280;BME280;34064;44.942;0.008;2023-04-10T04:30:03;99193.88;;;12.65;49.52
47280;BME280;34064;44.942;0.008;2023-04-10T04:32:29;99195.06;;;12.72;49.70
47280;BME280;34064;44.942;0.008;2023-04-10T04:34:55;99201.13;;;12.74;50.31
47280;BME280;34064;44.942;0.008;2023-04-10T04:37:22;99200.66;;;12.80;50.78
47280;BME280;34064;44.942;0.008;2023-04-10T04:39:48;99197.75;;;12.84;50.65
47280;BME280;34064;44.942;0.008;2023-04-10T04:42:14;99190.94;;;12.91;50.20
47280;BME280;34064;44.942;0.008;2023-04-10T04:44:43;99199.66;;;12.93;51.82
47280;BME280;34064;44.942;0.008;2023-04-10T04:47:13;99195.06;;;12.95;51.97
47280;BME280;34064;44.942;0.008;2023-04-10T04:49:40;99190.19;;;13.00;51.23
47280;BME280;34064;44.942;0.008;2023-04-10T04:52:07;99182.94;;;13.02;52.34
47280;BME280;34064;44.942;0.008;2023-04-10T04:54:36;99187.66;;;13.10;51.16
47280;BME280;34064;44.942;0.008;2023-04-10T04:57:07;99201.00;;;13.10;53.40
47280;BME280;34064;44.942;0.008;2023-04-10T04:59:35;99195.00;;;13.18;51.91
47280;BME280;34064;44.942;0.008;2023-04-10T05:02:03;99188.72;;;13.19;51.58
47280;BME280;34064;44.942;0.008;2023-04-10T05:04:29;99193.06;;;13.20;52.37
47280;BME280;34064;44.942;0.008;2023-04-10T05:06:56;99198.31;;;13.21;52.56
47280;BME280;34064;44.942;0.008;2023-04-10T05:09:22;99208.72;;;13.24;52.35
47280;BME280;34064;44.942;0.008;2023-04-10T05:11:48;99203.25;;;13.26;53.17
47280;BME280;34064;44.942;0.008;2023-04-10T05:14:16;99199.34;;;13.30;52.18
47280;BME280;34064;44.942;0.008;2023-04-10T05:16:42;99208.69;;;13.36;51.91
47280;BME280;34064;44.942;0.008;2023-04-10T05:19:10;99213.69;;;13.40;51.91
47280;BME280;34064;44.942;0.008;2023-04-10T05:21:37;99201.78;;;13.45;52.47
47280;BME280;34064;44.942;0.008;2023-04-10T05:24:04;99202.50;;;13.47;52.56
47280;BME280;34064;44.942;0.008;2023-04-10T05:26:30;99202.97;;;13.52;52.29
47280;BME280;34064;44.942;0.008;2023-04-10T05:28:56;99204.41;;;13.56;52.39
47280;BME280;34064;44.942;0.008;2023-04-10T05:31:24;99203.44;;;13.57;52.96
47280;BME280;34064;44.942;0.008;2023-04-10T05:33:50;99198.81;;;13.59;52.88
47280;BME280;34064;44.942;0.008;2023-04-10T05:36:17;99200.38;;;13.62;53.17
47280;BME280;34064;44.942;0.008;2023-04-10T05:38:43;99196.63;;;13.64;53.51
47280;BME280;34064;44.942;0.008;2023-04-10T05:41:09;99194.53;;;13.68;53.00
47280;BME280;34064;44.942;0.008;2023-04-10T05:43:36;99201.69;;;13.67;53.88
47280;BME280;34064;44.942;0.008;2023-04-10T05:46:02;99200.59;;;13.70;53.46
47280;BME280;34064;44.942;0.008;2023-04-10T05:48:29;99197.53;;;13.75;53.35
47280;BME280;34064;44.942;0.008;2023-04-10T05:50:55;99208.53;;;13.81;53.64
47280;BME280;34064;44.942;0.008;2023-04-10T05:53:26;99208.06;;;13.87;53.77
47280;BME280;34064;44.942;0.008;2023-04-10T05:55:54;99204.28;;;13.90;54.23
47280;BME280;34064;44.942;0.008;2023-04-10T05:58:21;99206.94;;;13.90;53.95
47280;BME280;34064;44.942;0.008;2023-04-10T06:00:48;99216.75;;;13.89;54.28
47280;BME280;34064;44.942;0.008;2023-04-10T06:03:14;99220.75;;;13.95;53.32
47280;BME280;34064;44.942;0.008;2023-04-10T06:05:40;99222.72;;;13.93;53.97
47280;BME280;34064;44.942;0.008;2023-04-10T06:08:07;99217.81;;;13.98;53.45
47280;BME280;34064;44.942;0.008;2023-04-10T06:10:33;99215.72;;;14.02;53.58
47280;BME280;34064;44.942;0.008;2023-04-10T06:12:59;99218.00;;;14.07;53.06
47280;BME280;34064;44.942;0.008;2023-04-10T06:15:26;99227.34;;;14.12;53.05
47280;BME280;34064;44.942;0.008;2023-04-10T06:17:55;99232.03;;;14.20;53.07
47280;BME280;34064;44.942;0.008;2023-04-10T06:20:25;99224.47;;;14.25;53.28
47280;BME280;34064;44.942;0.008;2023-04-10T06:22:54;99230.28;;;14.30;53.23
47280;BME280;34064;44.942;0.008;2023-04-10T06:25:24;99241.56;;;14.34;53.31
47280;BME280;34064;44.942;0.008;2023-04-10T06:27:54;99238.47;;;14.39;53.31
47280;BME280;34064;44.942;0.008;2023-04-10T06:30:25;99230.31;;;14.40;53.25
47280;BME280;34064;44.942;0.008;2023-04-10T06:32:55;99239.66;;;14.46;52.97
47280;BME280;34064;44.942;0.008;2023-04-10T06:35:25;99242.91;;;14.49;53.70
47280;BME280;34064;44.942;0.008;2023-04-10T06:37:53;99237.16;;;14.54;53.12
47280;BME280;34064;44.942;0.008;2023-04-10T06:40:19;99244.91;;;14.57;53.14
47280;BME280;34064;44.942;0.008;2023-04-10T06:42:48;99255.47;;;14.59;53.12
47280;BME280;34064;44.942;0.008;2023-04-10T06:45:15;99267.28;;;14.56;53.24
47280;BME280;34064;44.942;0.008;2023-04-10T06:47:42;99271.75;;;14.56;53.05
47280;BME280;34064;44.942;0.008;2023-04-10T06:50:08;99277.97;;;14.56;53.57
47280;BME280;34064;44.942;0.008;2023-04-10T06:52:38;99275.31;;;14.56;53.25
47280;BME280;34064;44.942;0.008;2023-04-10T06:55:08;99265.34;;;14.58;53.51
47280;BME280;34064;44.942;0.008;2023-04-10T06:57:39;99266.75;;;14.62;53.26
47280;BME280;34064;44.942;0.008;2023-04-10T07:00:09;99264.56;;;14.68;53.28
47280;BME280;34064;44.942;0.008;2023-04-10T07:02:39;99269.63;;;14.71;53.35
47280;BME280;34064;44.942;0.008;2023-04-10T07:05:09;99272.78;;;14.76;53.52
47280;BME280;34064;44.942;0.008;2023-04-10T07:07:43;99273.50;;;14.78;53.44
47280;BME280;34064;44.942;0.008;2023-04-10T07:10:14;99262.38;;;14.82;53.50
47280;BME280;34064;44.942;0.008;2023-04-10T07:12:44;99262.69;;;14.89;53.44
47280;BME280;34064;44.942;0.008;2023-04-10T07:15:14;99269.63;;;15.02;53.55
47280;BME280;34064;44.942;0.008;2023-04-10T07:17:42;99273.75;;;15.06;53.75
47280;BME280;34064;44.942;0.008;2023-04-10T07:20:08;99279.69;;;15.09;53.63
47280;BME280;34064;44.942;0.008;2023-04-10T07:22:35;99274.91;;;15.13;53.71
47280;BME280;34064;44.942;0.008;2023-04-10T07:25:03;99273.38;;;15.20;53.41
47280;BME280;34064;44.942;0.008;2023-04-10T07:27:34;99275.50;;;15.26;53.75
47280;BME280;34064;44.942;0.008;2023-04-10T07:30:05;99274.97;;;15.33;53.64
47280;BME280;34064;44.942;0.008;2023-04-10T07:32:35;99264.56;;;15.39;53.54
47280;BME280;34064;44.942;0.008;2023-04-10T07:35:09;99265.69;;;15.47;53.46
47280;BME280;34064;44.942;0.008;2023-04-10T07:37:38;99258.94;;;15.52;53.33
47280;BME280;34064;44.942;0.008;2023-04-10T07:40:09;99261.22;;;15.57;53.21
47280;BME280;34064;44.942;0.008;2023-04-10T07:42:38;99251.06;;;15.60;53.41
47280;BME280;34064;44.942;0.008;2023-04-10T07:45:07;99249.94;;;15.63;53.13
47280;BME280;34064;44.942;0.008;2023-04-10T07:47:34;99255.84;;;15.67;53.41
47280;BME280;34064;44.942;0.008;2023-04-10T07:50:01;99252.75;;;15.71;53.59
47280;BME280;34064;44.942;0.008;2023-04-10T07:52:27;99237.97;;;15.77;53.59
47280;BME280;34064;44.942;0.008;2023-04-10T07:54:56;99254.19;;;15.85;54.04
47280;BME280;34064;44.942;0.008;2023-04-10T07:57:26;99261.81;;;15.90;54.96
47280;BME280;34064;44.942;0.008;2023-04-10T07:59:53;99259.56;;;15.95;54.52
47280;BME280;34064;44.942;0.008;2023-04-10T08:02:20;99250.97;;;16.01;54.54
47280;BME280;34064;44.942;0.008;2023-04-10T08:04:46;99239.81;;;16.06;54.22
47280;BME280;34064;44.942;0.008;2023-04-10T08:07:13;99236.44;;;16.14;54.22
47280;BME280;34064;44.942;0.008;2023-04-10T08:09:39;99223.00;;;16.24;54.58
47280;BME280;34064;44.942;0.008;2023-04-10T08:12:08;99222.28;;;16.31;54.50
47280;BME280;34064;44.942;0.008;2023-04-10T08:14:36;99199.13;;;16.40;54.51
47280;BME280;34064;44.942;0.008;2023-04-10T08:17:02;99204.47;;;16.50;54.71
47280;BME280;34064;44.942;0.008;2023-04-10T08:19:28;99198.50;;;16.56;54.42
47280;BME280;34064;44.942;0.008;2023-04-10T08:21:57;99188.59;;;16.66;54.79
47280;BME280;34064;44.942;0.008;2023-04-10T08:24:26;99189.03;;;16.72;54.64
47280;BME280;34064;44.942;0.008;2023-04-10T08:26:56;99198.53;;;16.84;54.60
47280;BME280;34064;44.942;0.008;2023-04-10T08:29:23;99200.25;;;16.95;54.48
47280;BME280;34064;44.942;0.008;2023-04-10T08:31:50;99207.78;;;17.09;54.66
47280;BME280;34064;44.942;0.008;2023-04-10T08:34:16;99199.06;;;17.25;55.38
47280;BME280;34064;44.942;0.008;2023-04-10T08:36:45;99193.63;;;17.35;55.53
47280;BME280;34064;44.942;0.008;2023-04-10T08:39:14;99176.28;;;17.48;55.62
47280;BME280;34064;44.942;0.008;2023-04-10T08:41:41;99180.75;;;17.57;56.19
47280;BME280;34064;44.942;0.008;2023-04-10T08:44:09;99182.34;;;17.68;56.17
47280;BME280;34064;44.942;0.008;2023-04-10T08:46:43;99189.81;;;17.74;56.08
47280;BME280;34064;44.942;0.008;2023-04-10T08:49:17;99203.44;;;17.81;57.02
47280;BME280;34064;44.942;0.008;2023-04-10T08:51:55;99199.75;;;17.82;56.92
47280;BME280;34064;44.942;0.008;2023-04-10T08:54:27;99194.94;;;17.85;57.13
47280;BME280;34064;44.942;0.008;2023-04-10T08:56:54;99185.53;;;17.99;57.19
47280;BME280;34064;44.942;0.008;2023-04-10T08:59:23;99188.28;;;18.07;56.79
47280;BME280;34064;44.942;0.008;2023-04-10T09:01:50;99190.53;;;18.20;56.39
47280;BME280;34064;44.942;0.008;2023-04-10T09:04:17;99186.44;;;18.34;56.35
47280;BME280;34064;44.942;0.008;2023-04-10T09:06:45;99170.75;;;18.56;56.17
47280;BME280;34064;44.942;0.008;2023-04-10T09:09:15;99170.69;;;18.82;55.61
47280;BME280;34064;44.942;0.008;2023-04-10T09:14:22;99173.97;;;18.94;55.48
47280;BME280;34064;44.942;0.008;2023-04-10T09:16:49;99172.31;;;18.93;55.16
47280;BME280;34064;44.942;0.008;2023-04-10T09:19:32;99171.13;;;18.96;55.13
47280;BME280;34064;44.942;0.008;2023-04-10T09:21:59;99181.91;;;18.96;55.09
47280;BME280;34064;44.942;0.008;2023-04-10T09:24:27;99172.66;;;19.07;54.34
47280;BME280;34064;44.942;0.008;2023-04-10T09:26:54;99170.00;;;19.15;54.28
47280;BME280;34064;44.942;0.008;2023-04-10T09:29:23;99153.22;;;19.38;54.16
47280;BME280;34064;44.942;0.008;2023-04-10T09:31:52;99154.22;;;19.45;54.26
47280;BME280;34064;44.942;0.008;2023-04-10T09:34:20;99163.00;;;19.47;53.55
47280;BME280;34064;44.942;0.008;2023-04-10T09:36:55;99164.34;;;19.51;52.99
47280;BME280;34064;44.942;0.008;2023-04-10T09:39:33;99163.69;;;19.49;52.89
47280;BME280;34064;44.942;0.008;2023-04-10T09:42:03;99163.31;;;19.52;52.82
47280;BME280;34064;44.942;0.008;2023-04-10T09:44:35;99150.91;;;19.76;52.76
47280;BME280;34064;44.942;0.008;2023-04-10T09:47:17;99143.50;;;19.94;52.15
47280;BME280;34064;44.942;0.008;2023-04-10T09:49:48;99131.53;;;19.97;51.68
47280;BME280;34064;44.942;0.008;2023-04-10T09:55:07;99116.81;;;20.24;50.98
47280;BME280;34064;44.942;0.008;2023-04-10T09:57:42;99114.72;;;20.51;50.74
47280;BME280;34064;44.942;0.008;2023-04-10T10:00:10;99108.56;;;20.66;49.61
47280;BME280;34064;44.942;0.008;2023-04-10T10:02:39;99123.44;;;20.62;49.15
47280;BME280;34064;44.942;0.008;2023-04-10T10:05:09;99122.44;;;20.63;49.68
47280;BME280;34064;44.942;0.008;2023-04-10T10:07:39;99114.47;;;20.78;48.84
47280;BME280;34064;44.942;0.008;2023-04-10T10:10:09;99096.69;;;20.92;48.35
47280;BME280;34064;44.942;0.008;2023-04-10T10:12:49;99109.13;;;21.01;47.91
47280;BME280;34064;44.942;0.008;2023-04-10T10:20:59;99130.56;;;21.26;47.89
47280;BME280;34064;44.942;0.008;2023-04-10T10:23:32;99133.63;;;21.23;47.86
47280;BME280;34064;44.942;0.008;2023-04-10T10:26:01;99138.25;;;21.37;47.42
47280;BME280;34064;44.942;0.008;2023-04-10T10:28:31;99143.66;;;21.37;46.91
47280;BME280;34064;44.942;0.008;2023-04-10T10:30:59;99146.44;;;21.29;46.48
47280;BME280;34064;44.942;0.008;2023-04-10T10:33:30;99160.34;;;21.17;47.08
47280;BME280;34064;44.942;0.008;2023-04-10T10:36:02;99150.16;;;21.28;47.32
47280;BME280;34064;44.942;0.008;2023-04-10T10:38:30;99144.25;;;21.24;47.38
47280;BME280;34064;44.942;0.008;2023-04-10T10:41:29;99144.63;;;21.44;46.60
47280;BME280;34064;44.942;0.008;2023-04-10T10:49:19;99151.84;;;21.29;46.48
47280;BME280;34064;44.942;0.008;2023-04-10T10:51:53;99131.31;;;21.43;46.12
47280;BME280;34064;44.942;0.008;2023-04-10T10:54:35;99125.72;;;21.68;45.48
47280;BME280;34064;44.942;0.008;2023-04-10T11:00:24;99152.06;;;21.42;45.07
47280;BME280;34064;44.942;0.008;2023-04-10T11:05:51;99134.41;;;21.31;45.52
47280;BME280;34064;44.942;0.008;2023-04-10T11:08:41;99126.84;;;21.50;45.50
47280;BME280;34064;44.942;0.008;2023-04-10T11:16:22;99115.94;;;22.20;43.63
47280;BME280;34064;44.942;0.008;2023-04-10T11:21:20;99093.09;;;22.52;42.79
47280;BME280;34064;44.942;0.008;2023-04-10T11:26:36;99083.63;;;22.78;42.66
47280;BME280;34064;44.942;0.008;2023-04-10T11:31:38;99084.91;;;22.97;41.25
47280;BME280;34064;44.942;0.008;2023-04-10T11:34:09;99092.00;;;22.98;41.02
47280;BME280;34064;44.942;0.008;2023-04-10T11:36:42;99090.44;;;23.11;41.04
47280;BME280;34064;44.942;0.008;2023-04-10T11:39:18;99075.59;;;23.21;40.71
47280;BME280;34064;44.942;0.008;2023-04-10T11:41:50;99081.47;;;23.25;41.06
47280;BME280;34064;44.942;0.008;2023-04-10T11:44:30;99089.09;;;23.36;40.00
47280;BME280;34064;44.942;0.008;2023-04-10T11:46:57;99079.16;;;23.22;40.38
47280;BME280;34064;44.942;0.008;2023-04-10T11:49:26;99092.41;;;23.17;40.80
47280;BME280;34064;44.942;0.008;2023-04-10T11:51:53;99094.19;;;23.10;40.28
47280;BME280;34064;44.942;0.008;2023-04-10T11:54:24;99087.88;;;23.02;40.47
47280;BME280;34064;44.942;0.008;2023-04-10T11:57:03;99074.19;;;23.26;40.55
47280;BME280;34064;44.942;0.008;2023-04-10T11:59:31;99056.50;;;23.51;39.75
47280;BME280;34064;44.942;0.008;2023-04-10T12:02:14;99049.34;;;23.72;39.02
47280;BME280;34064;44.942;0.008;2023-04-10T12:04:41;99044.34;;;23.76;39.02
47280;BME280;34064;44.942;0.008;2023-04-10T12:07:08;99060.78;;;23.67;39.04
47280;BME280;34064;44.942;0.008;2023-04-10T12:09:34;99056.25;;;23.75;39.42
47280;BME280;34064;44.942;0.008;2023-04-10T12:12:05;99056.50;;;23.80;38.64
47280;BME280;34064;44.942;0.008;2023-04-10T12:14:42;99056.50;;;23.80;39.01
47280;BME280;34064;44.942;0.008;2023-04-10T12:17:10;99050.69;;;23.83;38.89
47280;BME280;34064;44.942;0.008;2023-04-10T12:19:38;99045.38;;;23.96;38.94
47280;BME280;34064;44.942;0.008;2023-04-10T12:22:05;99036.28;;;24.11;37.87
47280;BME280;34064;44.942;0.008;2023-04-10T12:24:52;99030.44;;;24.07;37.83
47280;BME280;34064;44.942;0.008;2023-04-10T12:27:25;99031.25;;;24.08;38.35
47280;BME280;34064;44.942;0.008;2023-04-10T12:29:54;99034.59;;;24.10;37.82
47280;BME280;34064;44.942;0.008;2023-04-10T12:32:21;99032.94;;;24.09;36.95
47280;BME280;34064;44.942;0.008;2023-04-10T12:34:53;99028.53;;;24.08;37.50
47280;BME280;34064;44.942;0.008;2023-04-10T12:37:45;99033.41;;;24.19;37.66
47280;BME280;34064;44.942;0.008;2023-04-10T12:40:14;99024.28;;;24.34;37.93
47280;BME280;34064;44.942;0.008;2023-04-10T12:42:42;99025.53;;;24.31;36.73
47280;BME280;34064;44.942;0.008;2023-04-10T12:45:09;99022.59;;;24.26;36.93
47280;BME280;34064;44.942;0.008;2023-04-10T12:47:49;99024.22;;;24.20;36.67
47280;BME280;34064;44.942;0.008;2023-04-10T12:50:19;99025.47;;;24.24;36.17
47280;BME280;34064;44.942;0.008;2023-04-10T12:53:02;99022.78;;;24.24;36.38
47280;BME280;34064;44.942;0.008;2023-04-10T12:55:29;99020.09;;;24.31;36.00
47280;BME280;34064;44.942;0.008;2023-04-10T12:57:56;99027.38;;;24.24;35.96
47280;BME280;34064;44.942;0.008;2023-04-10T13:00:24;99042.31;;;24.06;35.63
47280;BME280;34064;44.942;0.008;2023-04-10T13:02:50;99053.25;;;23.91;35.69
47280;BME280;34064;44.942;0.008;2023-04-10T13:05:16;99061.91;;;23.80;36.57
47280;BME280;34064;44.942;0.008;2023-04-10T13:07:43;99066.47;;;23.73;36.68
47280;BME280;34064;44.942;0.008;2023-04-10T13:10:09;99068.16;;;23.74;36.66
47280;BME280;34064;44.942;0.008;2023-04-10T13:12:36;99060.81;;;23.96;36.53
47280;BME280;34064;44.942;0.008;2023-04-10T13:15:04;99052.16;;;24.14;36.67
47280;BME280;34064;44.942;0.008;2023-04-10T13:17:32;99046.81;;;24.27;36.27
47280;BME280;34064;44.942;0.008;2023-04-10T13:19:58;99042.88;;;24.37;36.69
47280;BME280;34064;44.942;0.008;2023-04-10T13:22:27;99035.88;;;24.63;36.71
47280;BME280;34064;44.942;0.008;2023-04-10T13:24:55;99046.59;;;24.71;35.50
47280;BME280;34064;44.942;0.008;2023-04-10T13:27:21;99042.34;;;24.61;35.77
47280;BME280;34064;44.942;0.008;2023-04-10T13:29:48;99047.56;;;24.56;35.88
47280;BME280;34064;44.942;0.008;2023-04-10T13:32:14;99061.72;;;24.45;35.75
47280;BME280;34064;44.942;0.008;2023-04-10T13:34:41;99076.66;;;24.27;36.65
47280;BME280;34064;44.942;0.008;2023-04-10T13:37:08;99063.25;;;24.19;36.62
47280;BME280;34064;44.942;0.008;2023-04-10T13:39:34;99070.91;;;24.09;37.07
47280;BME280;34064;44.942;0.008;2023-04-10T13:42:01;99081.53;;;24.04;37.29
47280;BME280;34064;44.942;0.008;2023-04-10T13:44:29;99089.34;;;23.92;37.19
47280;BME280;34064;44.942;0.008;2023-04-10T13:46:57;99089.91;;;23.80;37.34
47280;BME280;34064;44.942;0.008;2023-04-10T13:49:26;99092.69;;;23.65;37.64
47280;BME280;34064;44.942;0.008;2023-04-10T13:52:00;99101.78;;;23.58;38.26
47280;BME280;34064;44.942;0.008;2023-04-10T13:54:27;99098.81;;;23.52;38.60